Time;durP1;ratioP1;P1;durP2;ratioP2;P2;SDS_P1;SDS_P2;PMS_P1;PMS_P2;Temp;Humidity;BMP_temperature;BMP_pressure;BME280_temperature;BME280_humidity;BME280_pressure;Samples;Min_cycle;Max_cycle;Signal;HPM_P1;HPM_P2
2023/03/13 00:01:39;;;;;;;20.60;3.80;;;9.10;99.90;;;;;;5100181;28;20043;-80
2023/03/13 00:04:05;;;;;;;19.17;3.92;;;9.20;99.90;;;;;;5120263;28;20047;-80
2023/03/13 00:06:34;;;;;;;14.82;3.63;;;9.10;99.90;;;;;;5122741;28;20040;-80
2023/03/13 00:09:01;;;;;;;15.52;3.53;;;9.10;99.90;;;;;;5121209;28;20058;-80
2023/03/13 00:11:27;;;;;;;14.23;3.53;;;9.10;99.90;;;;;;5112791;28;20052;-80
2023/03/13 00:13:55;;;;;;;13.75;3.55;;;9.00;99.90;;;;;;5090432;28;20129;-80
2023/03/13 00:16:21;;;;;;;24.60;4.32;;;8.90;99.90;;;;;;5124728;27;20035;-80
2023/03/13 00:18:49;;;;;;;17.85;3.67;;;9.00;99.90;;;;;;5110166;27;20073;-80
2023/03/13 00:21:16;;;;;;;17.83;3.53;;;8.90;99.90;;;;;;5103517;28;20036;-79
2023/03/13 00:23:42;;;;;;;18.33;3.70;;;8.80;99.90;;;;;;5120456;27;20091;-79
2023/03/13 00:26:13;;;;;;;20.35;3.97;;;8.90;99.90;;;;;;5119861;27;20499;-79
2023/03/13 00:28:41;;;;;;;22.80;3.72;;;8.90;99.90;;;;;;5098399;28;20574;-79
2023/03/13 00:31:09;;;;;;;11.57;2.67;;;8.80;99.90;;;;;;5119812;27;20040;-79
2023/03/13 00:33:36;;;;;;;15.70;3.33;;;8.80;99.90;;;;;;5110816;27;20111;-79
2023/03/13 00:36:05;;;;;;;20.23;4.28;;;8.80;99.90;;;;;;5124694;27;20398;-79
2023/03/13 00:38:32;;;;;;;22.27;5.03;;;8.80;99.90;;;;;;5107845;28;20134;-79
2023/03/13 00:41:03;;;;;;;14.77;3.17;;;8.70;99.90;;;;;;5124893;27;20381;-78
2023/03/13 00:43:29;;;;;;;21.65;3.55;;;8.70;99.90;;;;;;5122454;27;20043;-78
2023/03/13 00:45:55;;;;;;;23.45;3.78;;;8.60;99.90;;;;;;5120061;27;20413;-78
2023/03/13 00:48:21;;;;;;;24.42;4.30;;;8.60;99.90;;;;;;5072865;27;20091;-78
2023/03/13 00:50:47;;;;;;;25.90;5.03;;;8.60;99.90;;;;;;5121152;27;20092;-78
2023/03/13 00:53:13;;;;;;;15.05;3.17;;;8.60;99.90;;;;;;5097568;27;20039;-78
2023/03/13 00:55:38;;;;;;;20.85;5.05;;;8.70;99.90;;;;;;5119343;27;20093;-78
2023/03/13 00:58:04;;;;;;;17.30;3.50;;;8.60;99.90;;;;;;5095484;27;20039;-78
2023/03/13 01:00:30;;;;;;;24.97;3.87;;;8.60;99.90;;;;;;5108066;27;20277;-78
2023/03/13 01:02:55;;;;;;;26.20;4.30;;;8.60;99.90;;;;;;5114660;27;20054;-78
2023/03/13 01:05:21;;;;;;;24.85;5.10;;;8.60;99.90;;;;;;5122312;27;20051;-79
2023/03/13 01:07:47;;;;;;;20.40;3.95;;;8.60;99.90;;;;;;5102790;28;20075;-78
2023/03/13 01:10:12;;;;;;;19.98;3.83;;;8.70;99.90;;;;;;5123630;27;20477;-78
2023/03/13 01:12:38;;;;;;;23.27;4.50;;;8.70;99.90;;;;;;5125578;27;20047;-78
2023/03/13 01:15:04;;;;;;;17.77;3.78;;;8.70;99.90;;;;;;5120788;27;20037;-78
2023/03/13 01:17:30;;;;;;;23.17;3.60;;;8.70;99.90;;;;;;5122136;27;20368;-78
2023/03/13 01:19:56;;;;;;;12.23;3.27;;;8.60;99.90;;;;;;5106906;27;20057;-78
2023/03/13 01:22:22;;;;;;;28.33;3.97;;;8.70;99.90;;;;;;5116848;27;20365;-78
2023/03/13 01:24:51;;;;;;;22.90;4.63;;;8.60;99.90;;;;;;5115489;27;20225;-78
2023/03/13 01:27:18;;;;;;;12.63;3.45;;;8.60;99.90;;;;;;5108810;27;20070;-78
2023/03/13 01:29:43;;;;;;;24.65;4.72;;;8.60;99.90;;;;;;5106303;27;20083;-78
2023/03/13 01:32:09;;;;;;;19.00;4.00;;;8.80;99.90;;;;;;5121487;27;20484;-79
2023/03/13 01:34:35;;;;;;;23.42;5.03;;;8.70;99.90;;;;;;5121526;27;20283;-78
2023/03/13 01:37:00;;;;;;;27.20;3.83;;;8.70;99.90;;;;;;5118587;27;20031;-78
2023/03/13 01:39:26;;;;;;;17.10;3.53;;;8.70;99.90;;;;;;5119032;27;20096;-78
2023/03/13 01:41:52;;;;;;;16.48;3.53;;;8.70;99.90;;;;;;5127111;27;20074;-78
2023/03/13 01:44:22;;;;;;;12.88;3.30;;;8.80;99.90;;;;;;5123572;27;20039;-78
2023/03/13 01:46:48;;;;;;;16.58;4.25;;;8.70;99.90;;;;;;5102150;28;20126;-78
2023/03/13 01:49:18;;;;;;;22.30;3.53;;;8.70;99.90;;;;;;5103075;27;20172;-78
2023/03/13 01:51:58;;;;;;;16.90;3.03;;;8.70;99.90;;;;;;5116433;27;20128;-78
2023/03/13 01:54:45;;;;;;;17.88;3.88;;;8.70;99.90;;;;;;5120967;27;20122;-78
2023/03/13 01:57:24;;;;;;;28.38;5.15;;;8.70;99.90;;;;;;5116068;27;20035;-78
2023/03/13 01:59:58;;;;;;;17.88;4.20;;;8.70;99.90;;;;;;5129155;27;20057;-78
2023/03/13 02:02:25;;;;;;;14.70;4.35;;;8.60;99.90;;;;;;5120934;27;20047;-79
2023/03/13 02:04:56;;;;;;;20.60;3.85;;;8.60;99.90;;;;;;5119434;27;20396;-78
2023/03/13 02:07:28;;;;;;;22.65;4.07;;;8.70;99.90;;;;;;5101696;28;20040;-78
2023/03/13 02:09:55;;;;;;;21.40;3.53;;;8.70;99.90;;;;;;5116385;27;20051;-78
2023/03/13 02:12:30;;;;;;;22.52;4.03;;;8.70;99.90;;;;;;5108513;27;20031;-78
2023/03/13 02:14:58;;;;;;;13.70;3.95;;;8.80;99.90;;;;;;5118529;27;20073;-78
2023/03/13 02:17:24;;;;;;;23.77;4.32;;;8.70;99.90;;;;;;5123497;27;20066;-78
2023/03/13 02:19:50;;;;;;;;;;;8.70;99.90;;;;;;5121450;27;20047;-77
2023/03/13 02:22:48;;;;;;;16.77;4.03;;;8.80;99.90;;;;;;5122849;27;19915;-77
2023/03/13 02:25:23;;;;;;;13.52;3.13;;;8.70;99.90;;;;;;5117293;27;20070;-76
2023/03/13 02:27:59;;;;;;;17.50;4.20;;;8.70;99.90;;;;;;5102562;27;20043;-75
2023/03/13 02:30:26;;;;;;;18.90;3.55;;;8.60;99.90;;;;;;5118136;27;20123;-75
2023/03/13 02:32:52;;;;;;;16.58;4.50;;;8.60;99.90;;;;;;5099830;27;20385;-75
2023/03/13 02:35:21;;;;;;;19.30;3.65;;;8.60;99.90;;;;;;5117580;27;20083;-75
2023/03/13 02:37:55;;;;;;;17.73;4.00;;;8.60;99.90;;;;;;5122679;27;20534;-74
2023/03/13 02:40:25;;;;;;;13.18;3.88;;;8.60;99.90;;;;;;5095982;28;20479;-75
2023/03/13 02:42:52;;;;;;;9.50;3.58;;;8.60;99.90;;;;;;5119635;27;20055;-74
2023/03/13 02:45:18;;;;;;;16.13;3.55;;;8.70;99.90;;;;;;5098117;27;20044;-75
2023/03/13 02:47:44;;;;;;;16.48;3.60;;;8.70;99.90;;;;;;5115459;27;20376;-74
2023/03/13 02:50:11;;;;;;;16.17;4.07;;;8.80;99.90;;;;;;5119600;27;20050;-75
2023/03/13 02:52:59;;;;;;;12.27;3.47;;;8.70;99.90;;;;;;5100470;28;20535;-75
2023/03/13 02:55:29;;;;;;;11.93;2.90;;;8.70;99.90;;;;;;5119391;27;20542;-75
2023/03/13 02:57:55;;;;;;;15.32;3.40;;;8.70;99.90;;;;;;5115724;27;20455;-75
2023/03/13 03:00:25;;;;;;;7.57;2.63;;;8.80;99.90;;;;;;5102862;28;20084;-75
2023/03/13 03:02:52;;;;;;;13.02;3.33;;;8.90;99.90;;;;;;5104063;28;20348;-75
2023/03/13 03:05:19;;;;;;;8.75;2.38;;;8.90;99.90;;;;;;5120132;27;20054;-76
2023/03/13 03:07:44;;;;;;;9.50;3.17;;;8.90;99.90;;;;;;5124768;27;20035;-76
2023/03/13 03:10:10;;;;;;;15.07;3.00;;;9.00;99.90;;;;;;5122396;27;20092;-76
2023/03/13 03:12:36;;;;;;;8.00;2.42;;;9.00;99.90;;;;;;5119472;28;20122;-76
2023/03/13 03:15:06;;;;;;;6.90;3.17;;;8.90;99.90;;;;;;5084025;28;20437;-75
2023/03/13 03:17:31;;;;;;;8.55;2.58;;;9.00;99.90;;;;;;5118061;28;20273;-76
2023/03/13 03:19:57;;;;;;;5.00;2.60;;;9.00;99.90;;;;;;5103029;28;20502;-76
2023/03/13 03:22:23;;;;;;;5.77;2.43;;;9.10;99.90;;;;;;5105379;28;20281;-76
2023/03/13 03:24:48;;;;;;;7.87;2.77;;;9.20;99.90;;;;;;5103015;28;20278;-76
2023/03/13 03:27:14;;;;;;;6.37;2.87;;;9.10;99.90;;;;;;5121944;28;20628;-76
2023/03/13 03:29:40;;;;;;;7.25;2.83;;;9.00;99.90;;;;;;5102979;28;20113;-76
2023/03/13 03:32:05;;;;;;;5.80;2.07;;;9.10;99.90;;;;;;5100775;28;20040;-77
2023/03/13 03:34:31;;;;;;;8.45;2.65;;;9.10;99.90;;;;;;5116941;28;20331;-76
2023/03/13 03:36:57;;;;;;;6.57;2.25;;;9.10;99.90;;;;;;5119854;28;20050;-76
2023/03/13 03:39:22;;;;;;;6.07;2.38;;;9.10;99.90;;;;;;5069973;28;20134;-77
2023/03/13 03:41:48;;;;;;;7.68;3.28;;;9.20;99.90;;;;;;5122523;28;20035;-76
2023/03/13 03:44:14;;;;;;;8.90;3.17;;;9.20;99.90;;;;;;5119696;28;20045;-76
2023/03/13 03:46:39;;;;;;;4.35;2.53;;;9.20;99.90;;;;;;5114664;28;20077;-76
2023/03/13 03:49:05;;;;;;;5.80;2.13;;;9.20;99.90;;;;;;5105077;28;20055;-76
2023/03/13 03:51:31;;;;;;;5.80;1.90;;;9.20;99.90;;;;;;5103938;27;20284;-77
2023/03/13 03:53:56;;;;;;;4.53;2.03;;;9.30;99.90;;;;;;5126202;27;20039;-77
2023/03/13 03:56:22;;;;;;;5.22;2.25;;;9.30;99.90;;;;;;5123457;27;20032;-78
2023/03/13 03:58:48;;;;;;;4.07;1.98;;;9.40;99.90;;;;;;5128170;27;20047;-77
2023/03/13 04:01:14;;;;;;;5.05;1.60;;;9.40;99.90;;;;;;5125699;27;20494;-78
2023/03/13 04:03:39;;;;;;;4.85;1.98;;;9.50;99.90;;;;;;5126614;27;20041;-77
2023/03/13 04:06:06;;;;;;;3.88;2.05;;;9.50;99.90;;;;;;5127046;27;20035;-78
2023/03/13 04:08:31;;;;;;;3.38;1.65;;;9.60;99.90;;;;;;5117952;27;20122;-78
2023/03/13 04:10:59;;;;;;;4.72;1.77;;;9.60;99.90;;;;;;5106281;27;20130;-77
2023/03/13 04:13:25;;;;;;;2.92;1.38;;;9.60;99.90;;;;;;5123435;27;20065;-77
2023/03/13 04:15:50;;;;;;;5.80;2.20;;;9.70;99.90;;;;;;5089046;28;20067;-78
2023/03/13 04:18:16;;;;;;;3.10;1.50;;;9.80;99.90;;;;;;5122709;27;20284;-77
2023/03/13 04:20:42;;;;;;;6.03;1.98;;;9.80;99.90;;;;;;5124213;27;20820;-78
2023/03/13 04:23:08;;;;;;;5.65;1.80;;;9.80;99.90;;;;;;5091553;27;20047;-78
2023/03/13 04:25:33;;;;;;;3.97;1.95;;;9.90;99.90;;;;;;5103552;27;20043;-78
2023/03/13 04:27:59;;;;;;;5.13;2.67;;;9.90;99.90;;;;;;5106396;27;20046;-78
2023/03/13 04:30:25;;;;;;;4.55;2.58;;;10.00;99.90;;;;;;5105729;27;20297;-79
2023/03/13 04:32:50;;;;;;;7.13;3.40;;;10.00;99.90;;;;;;5123240;27;20027;-78
2023/03/13 04:35:16;;;;;;;6.07;3.75;;;10.10;99.90;;;;;;5083899;28;20043;-78
2023/03/13 04:37:42;;;;;;;6.65;3.58;;;10.20;99.90;;;;;;5117618;27;20563;-78
2023/03/13 04:40:08;;;;;;;6.95;3.40;;;10.20;99.90;;;;;;5107824;27;20031;-78
2023/03/13 04:42:34;;;;;;;10.45;3.70;;;10.20;99.90;;;;;;5083579;27;20126;-78
2023/03/13 04:44:59;;;;;;;8.55;3.85;;;10.20;99.90;;;;;;5105213;27;20588;-78
2023/03/13 04:47:25;;;;;;;8.23;4.35;;;10.20;99.90;;;;;;5099017;28;20376;-78
2023/03/13 04:49:51;;;;;;;8.77;4.70;;;10.30;99.90;;;;;;5092680;27;20114;-79
2023/03/13 04:52:16;;;;;;;8.93;4.40;;;10.30;99.90;;;;;;5120485;27;20059;-79
2023/03/13 04:54:42;;;;;;;9.88;4.65;;;10.40;99.90;;;;;;5116955;27;20042;-79
2023/03/13 04:57:08;;;;;;;9.13;5.13;;;10.40;99.90;;;;;;5102884;28;20391;-78
2023/03/13 04:59:33;;;;;;;9.98;4.60;;;10.30;99.90;;;;;;5108014;27;20039;-78
2023/03/13 05:01:59;;;;;;;9.50;3.85;;;10.40;99.90;;;;;;5102931;27;20046;-78
2023/03/13 05:04:25;;;;;;;7.55;4.35;;;10.50;99.90;;;;;;5127467;27;20041;-78
2023/03/13 05:06:50;;;;;;;8.85;4.50;;;10.60;99.90;;;;;;5102625;27;20427;-77
2023/03/13 05:09:16;;;;;;;7.07;4.07;;;10.50;99.90;;;;;;5091656;27;20075;-78
2023/03/13 05:11:42;;;;;;;10.57;4.85;;;10.60;99.90;;;;;;5101775;27;20043;-78
2023/03/13 05:14:09;;;;;;;9.73;4.60;;;10.60;99.90;;;;;;5134994;27;20615;-78
2023/03/13 05:16:36;;;;;;;10.75;4.80;;;10.60;99.90;;;;;;5106277;27;20043;-79
2023/03/13 05:19:02;;;;;;;12.80;5.32;;;10.60;99.90;;;;;;5125449;27;20035;-78
2023/03/13 05:21:27;;;;;;;9.05;5.00;;;10.60;99.90;;;;;;5097042;27;20087;-79
2023/03/13 05:23:53;;;;;;;10.33;4.97;;;10.70;99.90;;;;;;5108722;27;20043;-80
2023/03/13 05:26:19;;;;;;;9.73;4.65;;;10.80;99.90;;;;;;5105813;27;20280;-78
2023/03/13 05:28:44;;;;;;;12.13;5.03;;;10.80;99.90;;;;;;5118660;27;20059;-77
2023/03/13 05:31:10;;;;;;;9.90;4.43;;;10.90;99.90;;;;;;5121911;27;20039;-77
2023/03/13 05:33:36;;;;;;;6.53;3.85;;;10.90;99.90;;;;;;5111275;27;20061;-78
2023/03/13 05:36:01;;;;;;;6.47;2.97;;;10.90;99.90;;;;;;5122589;27;20376;-79
2023/03/13 05:38:27;;;;;;;8.38;3.33;;;11.00;99.90;;;;;;5115408;27;20118;-77
2023/03/13 05:40:53;;;;;;;7.30;3.50;;;11.10;99.90;;;;;;5105938;27;20114;-78
2023/03/13 05:43:18;;;;;;;9.67;3.90;;;11.20;99.90;;;;;;5124979;27;20794;-79
2023/03/13 05:45:44;;;;;;;12.63;4.22;;;11.10;99.90;;;;;;5105312;27;20319;-79
2023/03/13 05:48:10;;;;;;;8.68;3.90;;;11.20;99.90;;;;;;5124964;27;20035;-79
2023/03/13 05:50:35;;;;;;;9.77;3.53;;;11.20;99.90;;;;;;5089023;27;20063;-75
2023/03/13 05:53:01;;;;;;;11.10;3.67;;;11.20;99.90;;;;;;5126099;27;20422;-79
2023/03/13 05:55:27;;;;;;;9.35;3.10;;;11.10;99.90;;;;;;5090116;27;20494;-79
2023/03/13 05:57:52;;;;;;;9.20;3.07;;;11.20;99.90;;;;;;5105723;27;20055;-79
2023/03/13 06:00:18;;;;;;;10.13;3.53;;;11.20;99.90;;;;;;5127648;27;20383;-78
2023/03/13 06:02:44;;;;;;;9.25;3.47;;;11.20;99.90;;;;;;5122094;27;20277;-78
2023/03/13 06:05:10;;;;;;;8.38;3.38;;;11.10;99.90;;;;;;5124855;27;20034;-78
2023/03/13 06:07:36;;;;;;;12.05;3.20;;;11.10;99.90;;;;;;5107162;27;20126;-79
2023/03/13 06:10:02;;;;;;;8.45;3.13;;;11.20;99.90;;;;;;5107385;27;20059;-78
2023/03/13 06:12:28;;;;;;;11.90;3.10;;;11.20;99.90;;;;;;5125173;27;20526;-78
2023/03/13 06:14:54;;;;;;;7.65;2.63;;;11.10;99.90;;;;;;5106972;27;20096;-78
2023/03/13 06:17:20;;;;;;;12.83;3.67;;;11.10;99.90;;;;;;5108853;27;20045;-78
2023/03/13 06:19:46;;;;;;;6.70;3.25;;;11.10;99.90;;;;;;5107967;27;20779;-77
2023/03/13 06:22:12;;;;;;;10.43;3.67;;;11.10;99.90;;;;;;5109912;27;20039;-78
2023/03/13 06:24:37;;;;;;;8.70;3.25;;;11.00;99.90;;;;;;5123789;27;20389;-79
2023/03/13 06:27:03;;;;;;;9.90;3.75;;;11.00;99.90;;;;;;5103563;27;20356;-78
2023/03/13 06:29:29;;;;;;;8.73;4.07;;;11.00;99.90;;;;;;5127721;27;20482;-78
2023/03/13 06:31:54;;;;;;;17.45;4.72;;;11.00;99.90;;;;;;5107109;27;20398;-79
2023/03/13 06:34:20;;;;;;;8.85;3.90;;;11.00;99.90;;;;;;5104496;27;20026;-79
2023/03/13 06:36:46;;;;;;;12.77;4.63;;;11.10;99.90;;;;;;5122142;27;20425;-79
2023/03/13 06:39:12;;;;;;;7.30;3.58;;;11.20;99.90;;;;;;5105571;27;20403;-79
2023/03/13 06:41:37;;;;;;;13.40;4.45;;;11.20;99.90;;;;;;5088970;27;20075;-79
2023/03/13 06:44:04;;;;;;;9.40;3.55;;;11.20;99.90;;;;;;5108368;27;20035;-79
2023/03/13 06:46:30;;;;;;;;;;;11.30;99.90;;;;;;5123512;27;20038;-79
2023/03/13 06:48:57;;;;;;;13.40;4.03;;;11.40;99.90;;;;;;5121149;27;19923;-79
2023/03/13 06:51:25;;;;;;;13.43;4.00;;;11.30;99.90;;;;;;5123504;27;20041;-79
2023/03/13 06:53:51;;;;;;;13.73;4.05;;;11.40;99.90;;;;;;5124028;27;20077;-79
2023/03/13 06:56:17;;;;;;;12.13;4.13;;;11.30;99.90;;;;;;5124107;27;20122;-79
2023/03/13 06:58:46;;;;;;;12.45;3.45;;;11.30;99.90;;;;;;5107715;27;20030;-79
2023/03/13 07:01:14;;;;;;;11.27;4.22;;;11.40;99.90;;;;;;5123948;27;20066;-79
2023/03/13 07:03:42;;;;;;;11.52;3.55;;;11.50;99.90;;;;;;5123788;27;20039;-79
2023/03/13 07:06:10;;;;;;;10.43;4.00;;;11.50;99.90;;;;;;5088488;27;20038;-79
2023/03/13 07:08:36;;;;;;;11.65;3.80;;;11.50;99.90;;;;;;5106381;27;20518;-79
2023/03/13 07:11:05;;;;;;;13.35;4.28;;;11.50;99.90;;;;;;5089808;27;20043;-79
2023/03/13 07:13:31;;;;;;;9.20;4.05;;;11.50;99.90;;;;;;5124162;27;20031;-79
2023/03/13 07:16:03;;;;;;;9.82;3.67;;;11.60;99.90;;;;;;5106727;27;20074;-79
2023/03/13 07:18:28;;;;;;;9.95;3.50;;;11.60;99.90;;;;;;5105938;27;20035;-79
2023/03/13 07:20:56;;;;;;;10.70;3.40;;;11.60;99.90;;;;;;5121856;27;20069;-79
2023/03/13 07:23:24;;;;;;;9.43;3.88;;;11.60;99.90;;;;;;5106347;27;20112;-79
2023/03/13 07:25:54;;;;;;;9.82;3.60;;;11.60;99.90;;;;;;5127422;27;20371;-79
2023/03/13 07:28:20;;;;;;;8.77;3.80;;;11.60;99.90;;;;;;5110529;27;20027;-78
2023/03/13 07:30:46;;;;;;;8.18;3.40;;;11.50;99.90;;;;;;5127098;27;20039;-79
2023/03/13 07:33:11;;;;;;;7.75;3.28;;;11.50;99.90;;;;;;5093726;27;20042;-79
2023/03/13 07:35:37;;;;;;;9.53;3.37;;;11.60;99.90;;;;;;5108954;27;20364;-79
2023/03/13 07:38:03;;;;;;;12.73;4.32;;;11.60;99.90;;;;;;5109215;27;20272;-79
2023/03/13 07:40:28;;;;;;;16.30;4.30;;;11.50;99.90;;;;;;5127389;27;20047;-78
2023/03/13 07:42:54;;;;;;;8.90;3.50;;;11.50;99.90;;;;;;5090971;27;20100;-79
2023/03/13 07:45:20;;;;;;;12.37;3.57;;;11.60;99.90;;;;;;5127087;27;20080;-78
2023/03/13 07:47:45;;;;;;;9.55;3.50;;;11.60;99.90;;;;;;5109861;27;20291;-78
2023/03/13 07:50:11;;;;;;;10.43;3.17;;;11.60;99.90;;;;;;5129354;27;20035;-78
2023/03/13 07:52:37;;;;;;;10.52;2.45;;;11.50;99.90;;;;;;5107897;27;20510;-78
2023/03/13 07:55:03;;;;;;;8.43;3.60;;;11.60;99.90;;;;;;5130627;27;20039;-78
2023/03/13 07:57:29;;;;;;;7.03;2.85;;;11.60;99.90;;;;;;5122385;27;20035;-78
2023/03/13 07:59:55;;;;;;;7.95;2.95;;;11.50;99.90;;;;;;5105012;27;20054;-78
2023/03/13 08:02:20;;;;;;;9.75;3.45;;;11.50;99.90;;;;;;5121248;27;20475;-78
2023/03/13 08:04:46;;;;;;;6.82;2.40;;;11.50;99.90;;;;;;5110178;27;20051;-78
2023/03/13 08:07:12;;;;;;;8.85;3.05;;;11.40;99.90;;;;;;5126342;27;20048;-79
2023/03/13 08:09:37;;;;;;;9.90;3.10;;;11.40;99.90;;;;;;5092952;27;20069;-78
2023/03/13 08:12:03;;;;;;;7.85;2.38;;;11.40;99.90;;;;;;5107575;27;20039;-79
2023/03/13 08:14:29;;;;;;;8.18;2.97;;;11.40;99.90;;;;;;5110159;27;20047;-78
2023/03/13 08:16:55;;;;;;;7.43;2.17;;;11.40;99.90;;;;;;5126749;27;20037;-79
2023/03/13 08:19:20;;;;;;;8.25;2.50;;;11.40;99.90;;;;;;5130957;27;20048;-79
2023/03/13 08:21:46;;;;;;;9.75;2.33;;;11.50;99.90;;;;;;5089505;27;20103;-79
2023/03/13 08:24:12;;;;;;;6.25;1.58;;;11.50;99.90;;;;;;5114356;27;20668;-80
2023/03/13 08:26:41;;;;;;;5.57;1.83;;;11.60;99.90;;;;;;5124499;27;20566;-78
2023/03/13 08:29:09;;;;;;;5.70;2.22;;;11.60;99.90;;;;;;5109633;27;20039;-79
2023/03/13 08:31:42;;;;;;;5.22;2.00;;;11.70;99.90;;;;;;5126730;27;20031;-79
2023/03/13 08:34:07;;;;;;;3.33;1.70;;;11.90;99.90;;;;;;5106295;27;20114;-80
2023/03/13 08:36:35;;;;;;;8.18;2.00;;;12.20;99.90;;;;;;5127435;27;20438;-80
2023/03/13 08:39:08;;;;;;;5.28;1.70;;;12.60;99.90;;;;;;5126165;27;20088;-78
2023/03/13 08:41:36;;;;;;;3.38;1.75;;;13.10;99.90;;;;;;5107192;27;20502;-78
2023/03/13 08:44:03;;;;;;;3.40;1.10;;;13.60;99.90;;;;;;5126195;27;20046;-78
2023/03/13 08:46:31;;;;;;;5.13;1.30;;;14.00;99.90;;;;;;5108572;27;20138;-80
2023/03/13 08:48:57;;;;;;;4.53;1.02;;;14.50;99.90;;;;;;5126313;27;20038;-79
2023/03/13 08:51:25;;;;;;;5.25;0.93;;;14.60;99.90;;;;;;5128272;27;20039;-79
2023/03/13 08:53:51;;;;;;;4.57;1.25;;;15.10;99.90;;;;;;5124443;27;20372;-79
2023/03/13 08:56:20;;;;;;;4.90;1.10;;;15.00;99.90;;;;;;5108314;27;20117;-79
2023/03/13 08:58:54;;;;;;;2.17;0.82;;;14.90;99.90;;;;;;5126160;27;20378;-80
2023/03/13 09:01:21;;;;;;;2.80;1.00;;;15.10;99.90;;;;;;5124525;27;20117;-80
2023/03/13 09:03:48;;;;;;;4.65;0.90;;;15.30;99.90;;;;;;5128177;27;20045;-80
2023/03/13 09:06:13;;;;;;;;;;;15.50;99.90;;;;;;5109634;27;20070;-80
2023/03/13 09:08:40;;;;;;;2.85;0.70;;;15.70;99.90;;;;;;5111371;27;19957;-80
2023/03/13 09:11:09;;;;;;;1.85;0.60;;;15.60;99.90;;;;;;5091273;27;20126;-80
2023/03/13 09:13:38;;;;;;;3.45;0.70;;;15.20;99.90;;;;;;5128140;27;20039;-80
2023/03/13 09:16:07;;;;;;;4.80;0.98;;;14.60;99.90;;;;;;5123473;27;20034;-80
2023/03/13 09:18:33;;;;;;;3.85;1.10;;;14.30;99.90;;;;;;5125815;27;20038;-80
2023/03/13 09:20:59;;;;;;;;;;;13.90;99.90;;;;;;5125907;27;20039;-80
2023/03/13 09:23:25;;;;;;;7.28;1.40;;;13.90;99.90;;;;;;5126445;27;19915;-80
2023/03/13 09:25:56;;;;;;;5.60;1.38;;;13.60;99.90;;;;;;5125894;27;20035;-80
2023/03/13 09:28:23;;;;;;;3.72;1.23;;;13.40;99.90;;;;;;5108761;27;20046;-80
2023/03/13 09:30:48;;;;;;;9.20;1.40;;;13.30;99.90;;;;;;5101492;27;20411;-80
2023/03/13 09:33:15;;;;;;;4.18;1.10;;;13.10;99.90;;;;;;5075176;27;20045;-80
2023/03/13 09:35:41;;;;;;;6.43;1.60;;;13.10;99.90;;;;;;5125897;27;20034;-80
2023/03/13 09:38:07;;;;;;;10.02;1.85;;;13.00;99.90;;;;;;5127160;27;20139;-80
2023/03/13 09:40:53;;;;;;;7.97;1.50;;;12.90;99.90;;;;;;5123084;27;20035;-81
2023/03/13 09:43:43;;;;;;;7.57;1.50;;;12.90;99.90;;;;;;5123917;27;20035;-80
2023/03/13 09:46:22;;;;;;;7.53;1.80;;;12.80;99.90;;;;;;5122689;27;20035;-80
2023/03/13 09:48:54;;;;;;;9.10;2.08;;;12.80;99.90;;;;;;5108535;27;20042;-80
2023/03/13 09:51:41;;;;;;;6.70;1.70;;;12.80;99.90;;;;;;5125844;27;20032;-81
2023/03/13 09:54:27;;;;;;;7.00;1.40;;;12.80;99.90;;;;;;5106655;27;20154;-80
2023/03/13 09:57:04;;;;;;;11.30;1.95;;;12.80;99.90;;;;;;5119422;27;20549;-80
2023/03/13 09:59:33;;;;;;;8.77;2.03;;;12.80;99.90;;;;;;5120709;27;20045;-80
2023/03/13 10:02:02;;;;;;;5.15;1.80;;;12.90;99.90;;;;;;5126002;27;20558;-80
2023/03/13 10:04:43;;;;;;;6.97;1.77;;;13.60;99.90;;;;;;5124889;27;20038;-81
2023/03/13 10:07:12;;;;;;;8.38;2.03;;;14.30;99.90;;;;;;5121566;27;20050;-80
2023/03/13 10:09:39;;;;;;;5.63;1.40;;;14.90;99.90;;;;;;5124255;27;20043;-80
2023/03/13 10:12:15;;;;;;;15.27;2.30;;;15.20;99.90;;;;;;5123921;27;20046;-81
2023/03/13 10:14:45;;;;;;;9.88;2.92;;;15.50;99.90;;;;;;5123067;27;20031;-81
2023/03/13 10:17:30;;;;;;;8.38;1.55;;;16.00;99.90;;;;;;5107014;27;20127;-81
2023/03/13 10:20:17;;;;;;;8.77;1.67;;;16.40;99.90;;;;;;5123113;27;20465;-81
2023/03/13 10:22:45;;;;;;;;;;;16.60;99.90;;;;;;5111533;27;20093;-81
2023/03/13 10:25:23;;;;;;;8.27;1.65;;;16.80;99.90;;;;;;5105171;27;19923;-81
2023/03/13 10:27:49;;;;;;;10.13;1.95;;;17.00;99.90;;;;;;5124464;27;20030;-81
2023/03/13 10:30:35;;;;;;;5.88;1.55;;;17.20;99.90;;;;;;5107483;27;20031;-81
2023/03/13 10:33:07;;;;;;;6.95;1.52;;;16.80;99.90;;;;;;5091558;27;20049;-81
2023/03/13 10:35:38;;;;;;;8.77;1.90;;;16.70;99.90;;;;;;5119695;27;20027;-82
2023/03/13 10:38:18;;;;;;;9.82;2.22;;;16.70;99.90;;;;;;5121757;27;20114;-81
2023/03/13 10:40:59;;;;;;;8.38;1.77;;;16.40;99.90;;;;;;5125513;27;20039;-82
2023/03/13 10:43:27;;;;;;;12.65;2.08;;;16.30;99.90;;;;;;5118538;27;20071;-81
2023/03/13 10:45:53;;;;;;;7.82;1.88;;;16.10;99.90;;;;;;5107177;27;20049;-81
2023/03/13 10:48:20;;;;;;;7.53;1.88;;;16.00;99.90;;;;;;5126115;27;20042;-81
2023/03/13 10:50:56;;;;;;;10.68;2.08;;;15.80;99.90;;;;;;5108794;27;20039;-81
2023/03/13 10:53:28;;;;;;;11.70;2.17;;;15.50;99.90;;;;;;5123550;27;20114;-82
2023/03/13 10:56:13;;;;;;;10.68;2.22;;;15.10;99.90;;;;;;5106830;27;20085;-82
2023/03/13 10:58:44;;;;;;;15.50;2.40;;;15.00;99.90;;;;;;5106118;27;20031;-82
2023/03/13 11:01:31;;;;;;;10.18;2.35;;;14.70;99.90;;;;;;5126227;27;20031;-82
2023/03/13 11:03:59;;;;;;;6.18;1.70;;;14.70;99.90;;;;;;5106367;27;20035;-82
2023/03/13 11:06:35;;;;;;;11.18;2.20;;;14.80;99.90;;;;;;5106784;27;20031;-82
2023/03/13 11:09:12;;;;;;;10.80;2.08;;;14.80;99.90;;;;;;5105732;27;20074;-82
2023/03/13 11:11:44;;;;;;;9.88;2.28;;;14.70;99.90;;;;;;5118919;27;20051;-82
2023/03/13 11:14:16;;;;;;;11.57;1.70;;;14.60;99.90;;;;;;5120425;27;20440;-82
2023/03/13 11:16:50;;;;;;;9.23;1.58;;;14.70;99.90;;;;;;5115995;28;20089;-82
2023/03/13 11:19:25;;;;;;;10.13;1.85;;;14.60;99.90;;;;;;5119347;28;20724;-82
2023/03/13 11:22:12;;;;;;;8.02;1.90;;;14.60;99.90;;;;;;5117214;28;20040;-82
2023/03/13 11:24:41;;;;;;;;;;;14.60;99.90;;;;;;5118194;28;20088;-82
2023/03/13 11:27:23;;;;;;;7.72;1.27;;;14.80;99.90;;;;;;5100516;28;20399;-82
2023/03/13 11:30:07;;;;;;;9.75;1.80;;;14.80;99.90;;;;;;5102187;28;20472;-82
2023/03/13 11:32:59;;;;;;;9.65;2.00;;;14.70;99.90;;;;;;5120201;28;20039;-81
2023/03/13 11:35:45;;;;;;;9.05;1.92;;;14.60;99.90;;;;;;5113875;28;20119;-82
2023/03/13 11:38:26;;;;;;;9.40;1.38;;;14.60;99.90;;;;;;5102256;28;20035;-81
2023/03/13 11:41:01;;;;;;;8.95;1.48;;;14.60;99.90;;;;;;5103901;28;20043;-82
2023/03/13 11:43:47;;;;;;;7.32;1.48;;;14.50;99.90;;;;;;5105814;28;20047;-82
2023/03/13 11:46:28;;;;;;;7.50;1.83;;;14.60;99.90;;;;;;5103391;28;20069;-82
2023/03/13 11:49:14;;;;;;;4.30;1.10;;;14.90;99.90;;;;;;5100752;28;20039;-82
2023/03/13 11:52:15;;;;;;;4.60;1.40;;;15.60;99.90;;;;;;5101681;28;20072;-82
2023/03/13 11:55:18;;;;;;;5.55;1.30;;;15.90;99.90;;;;;;5121855;28;20038;-82
2023/03/13 11:57:57;;;;;;;6.82;1.30;;;15.80;99.90;;;;;;5117249;28;20092;-83
2023/03/13 12:00:49;;;;;;;5.95;1.50;;;15.70;99.90;;;;;;5102838;28;20042;-83
2023/03/13 12:03:21;;;;;;;9.30;1.52;;;15.60;99.90;;;;;;5121230;28;20036;-83
2023/03/13 12:05:56;;;;;;;7.72;1.55;;;15.30;99.90;;;;;;5100901;28;20046;-83
2023/03/13 12:09:00;;;;;;;7.63;1.77;;;15.30;99.90;;;;;;5102353;28;20042;-82
2023/03/13 12:11:32;;;;;;;9.27;1.70;;;15.30;99.90;;;;;;5110054;28;20043;-83
2023/03/13 12:14:12;;;;;;;8.73;1.80;;;15.10;99.90;;;;;;5104084;27;20039;-83
2023/03/13 12:16:55;;;;;;;8.88;1.38;;;15.20;99.90;;;;;;5098661;27;20479;-83
2023/03/13 12:19:35;;;;;;;9.20;1.60;;;15.30;99.90;;;;;;5116954;27;20050;-80
2023/03/13 12:22:13;;;;;;;9.45;2.05;;;15.40;99.90;;;;;;5103882;27;20043;-81
2023/03/13 12:24:48;;;;;;;9.15;1.60;;;15.10;99.90;;;;;;5124324;27;20124;-81
2023/03/13 12:27:38;;;;;;;10.52;2.00;;;15.00;99.90;;;;;;5105687;27;20088;-82
2023/03/13 12:30:42;;;;;;;6.68;2.08;;;15.40;99.90;;;;;;5122981;27;20036;-82
2023/03/13 12:33:25;;;;;;;6.18;1.67;;;15.80;99.90;;;;;;5122584;27;20490;-82
2023/03/13 12:36:16;;;;;;;9.27;1.92;;;16.00;99.90;;;;;;5105867;27;20031;-82
2023/03/13 12:38:59;;;;;;;10.90;2.38;;;16.10;99.90;;;;;;5121296;27;20027;-82
2023/03/13 12:41:40;;;;;;;11.55;2.17;;;16.60;99.90;;;;;;5103606;27;20510;-82
2023/03/13 12:44:10;;;;;;;6.55;1.80;;;16.90;99.90;;;;;;5122148;27;20044;-82
2023/03/13 12:46:36;;;;;;;13.23;2.40;;;17.20;99.90;;;;;;5123381;27;20063;-81
2023/03/13 12:49:29;;;;;;;12.05;2.20;;;17.40;99.90;;;;;;5123419;27;20032;-81
2023/03/13 12:52:04;;;;;;;7.18;1.58;;;17.60;99.90;;;;;;5117845;27;20085;-81
2023/03/13 12:54:57;;;;;;;10.05;2.15;;;17.40;99.90;;;;;;5100486;27;20075;-82
2023/03/13 12:58:05;;;;;;;11.27;2.10;;;17.20;99.90;;;;;;5123932;27;20031;-81
2023/03/13 13:00:35;;;;;;;9.77;2.40;;;17.70;99.90;;;;;;5017778;28;20047;-81
2023/03/13 13:03:23;;;;;;;11.15;2.75;;;17.80;99.90;;;;;;5094975;27;20285;-81